createdAt,value
2023-05-23T00:01:55.203Z,75.40
2023-05-23T00:04:27.211Z,75.70
2023-05-23T00:06:55.712Z,76.00
2023-05-23T00:09:23.362Z,76.20
2023-05-23T00:11:50.909Z,76.30
2023-05-23T00:14:18.625Z,76.50
2023-05-23T00:16:47.205Z,76.80
2023-05-23T00:19:16.335Z,76.90
2023-05-23T00:21:48.646Z,77.10
2023-05-23T00:24:18.618Z,77.20
2023-05-23T00:26:47.296Z,77.40
2023-05-23T00:29:16.744Z,77.70
2023-05-23T00:31:46.560Z,78.00
2023-05-23T00:34:18.123Z,78.20
2023-05-23T00:36:47.894Z,78.70
2023-05-23T00:39:21.901Z,78.00
2023-05-23T00:41:52.156Z,78.60
2023-05-23T00:44:22.041Z,79.00
2023-05-23T00:46:55.305Z,79.40
2023-05-23T00:49:23.592Z,80.00
2023-05-23T00:51:52.534Z,80.30
2023-05-23T00:54:25.438Z,80.60
2023-05-23T00:56:53.954Z,81.00
2023-05-23T00:59:23.224Z,81.20
2023-05-23T01:01:52.960Z,81.60
2023-05-23T01:04:20.882Z,81.80
2023-05-23T01:06:49.323Z,81.90
2023-05-23T01:09:18.202Z,82.10
2023-05-23T01:11:49.719Z,82.30
2023-05-23T01:14:24.003Z,82.40
2023-05-23T01:16:58.270Z,82.90
2023-05-23T01:19:47.827Z,83.20
2023-05-23T01:22:25.040Z,83.60
2023-05-23T01:25:00.642Z,83.60
2023-05-23T01:27:47.064Z,83.80
2023-05-23T01:30:19.387Z,83.90
2023-05-23T01:32:53.930Z,84.30
2023-05-23T01:35:26.553Z,84.90
2023-05-23T01:37:56.111Z,85.30
2023-05-23T01:40:25.532Z,85.50
2023-05-23T01:42:55.369Z,85.70
2023-05-23T01:45:26.688Z,86.00
2023-05-23T01:47:54.689Z,86.40
2023-05-23T01:50:23.561Z,86.60
2023-05-23T01:52:51.514Z,86.90
2023-05-23T01:55:26.442Z,87.30
2023-05-23T01:57:57.877Z,87.70
2023-05-23T02:00:25.774Z,88.10
2023-05-23T02:02:53.388Z,88.20
2023-05-23T02:05:21.324Z,88.60
2023-05-23T02:07:48.980Z,88.90
2023-05-23T02:10:19.299Z,89.20
2023-05-23T02:12:47.241Z,89.50
2023-05-23T02:15:14.867Z,89.80
2023-05-23T02:17:43.089Z,90.00
2023-05-23T02:20:11.512Z,90.20
2023-05-23T02:22:39.265Z,90.20
2023-05-23T02:25:08.308Z,90.50
2023-05-23T02:27:36.001Z,90.50
2023-05-23T02:30:04.659Z,90.60
2023-05-23T02:32:32.820Z,90.70
2023-05-23T02:35:00.738Z,90.80
2023-05-23T02:37:29.064Z,90.90
2023-05-23T02:39:56.937Z,91.00
2023-05-23T02:42:24.749Z,91.20
2023-05-23T02:44:52.461Z,91.30
2023-05-23T02:47:20.300Z,91.40
2023-05-23T02:49:49.476Z,91.40
2023-05-23T02:52:18.236Z,91.60
2023-05-23T02:54:45.802Z,91.70
2023-05-23T02:57:13.739Z,91.70
2023-05-23T02:59:43.555Z,91.90
2023-05-23T03:02:11.262Z,91.90
2023-05-23T03:04:38.865Z,92.10
2023-05-23T03:07:11.522Z,92.20
2023-05-23T03:09:44.987Z,92.30
2023-05-23T03:12:12.535Z,92.40
2023-05-23T03:14:40.276Z,92.50
2023-05-23T03:17:07.881Z,92.60
2023-05-23T03:19:36.780Z,92.70
2023-05-23T03:22:04.906Z,92.90
2023-05-23T03:24:32.903Z,92.90
2023-05-23T03:27:02.007Z,93.10
2023-05-23T03:29:29.894Z,93.30
2023-05-23T03:31:58.400Z,93.40
2023-05-23T03:34:26.711Z,93.50
2023-05-23T03:36:54.310Z,93.50
2023-05-23T03:39:23.073Z,93.70
2023-05-23T03:41:50.707Z,93.70
2023-05-23T03:44:18.751Z,93.80
2023-05-23T03:46:46.461Z,93.90
2023-05-23T03:49:15.641Z,93.90
2023-05-23T03:51:43.232Z,94.00
2023-05-23T03:54:17.538Z,94.10
2023-05-23T03:56:45.368Z,94.10
2023-05-23T03:59:12.995Z,94.10
2023-05-23T04:01:41.460Z,94.20
2023-05-23T04:04:09.735Z,94.30
2023-05-23T04:06:38.671Z,94.30
2023-05-23T04:09:06.584Z,94.30
2023-05-23T04:11:39.306Z,94.30
2023-05-23T04:14:07.984Z,94.40
2023-05-23T04:16:37.527Z,94.40
2023-05-23T04:19:06.101Z,94.40
2023-05-23T04:21:34.611Z,94.40
2023-05-23T04:24:08.623Z,94.40
2023-05-23T04:26:39.571Z,94.40
2023-05-23T04:29:07.402Z,94.40
2023-05-23T04:31:36.344Z,94.10
2023-05-23T04:34:04.505Z,94.20
2023-05-23T04:36:38.218Z,94.30
2023-05-23T04:39:06.266Z,94.40
2023-05-23T04:41:40.055Z,94.40
2023-05-23T04:44:18.797Z,94.40
2023-05-23T04:46:51.756Z,94.40
2023-05-23T04:49:29.386Z,94.50
2023-05-23T04:51:57.269Z,94.50
2023-05-23T04:54:28.147Z,94.60
2023-05-23T04:56:57.377Z,94.60
2023-05-23T04:59:27.181Z,94.70
2023-05-23T05:01:54.965Z,94.60
2023-05-23T05:04:23.481Z,94.70
2023-05-23T05:06:52.691Z,94.70
2023-05-23T05:09:22.201Z,94.80
2023-05-23T05:11:51.095Z,94.80
2023-05-23T05:14:20.504Z,94.80
2023-05-23T05:16:50.217Z,94.90
2023-05-23T05:19:18.074Z,95.00
2023-05-23T05:21:46.897Z,95.00
2023-05-23T05:24:15.657Z,94.90
2023-05-23T05:26:43.684Z,95.00
2023-05-23T05:29:11.389Z,95.00
2023-05-23T05:31:39.236Z,95.00
2023-05-23T05:34:06.946Z,94.90
2023-05-23T05:36:34.558Z,95.00
2023-05-23T05:39:03.712Z,95.00
2023-05-23T05:41:31.671Z,95.00
2023-05-23T05:43:59.327Z,95.00
2023-05-23T05:46:27.373Z,95.00
2023-05-23T05:48:55.776Z,95.00
2023-05-23T05:51:23.556Z,94.90
2023-05-23T05:53:51.499Z,94.90
2023-05-23T05:56:19.268Z,94.80
2023-05-23T05:58:46.903Z,94.80
2023-05-23T06:01:17.600Z,94.80
2023-05-23T06:03:45.476Z,94.70
2023-05-23T06:06:13.163Z,94.70
2023-05-23T06:08:42.227Z,94.70
2023-05-23T06:11:13.307Z,94.70
2023-05-23T06:13:40.772Z,94.60
2023-05-23T06:16:08.525Z,94.60
2023-05-23T06:18:36.028Z,94.50
2023-05-23T06:21:03.574Z,94.40
2023-05-23T06:23:31.270Z,94.40
2023-05-23T06:26:00.117Z,94.30
2023-05-23T06:28:27.666Z,94.30
2023-05-23T06:30:55.399Z,94.20
2023-05-23T06:33:22.973Z,94.10
2023-05-23T06:35:50.532Z,94.00
2023-05-23T06:38:18.208Z,93.90
2023-05-23T06:40:45.742Z,93.90
2023-05-23T06:43:14.545Z,93.80
2023-05-23T06:45:47.803Z,93.80
2023-05-23T06:48:15.902Z,93.70
2023-05-23T06:50:46.209Z,93.60
2023-05-23T06:53:16.633Z,93.40
2023-05-23T06:55:47.161Z,93.30
2023-05-23T06:58:18.002Z,93.30
2023-05-23T07:00:45.673Z,93.30
2023-05-23T07:03:19.433Z,93.10
2023-05-23T07:05:47.113Z,93.00
2023-05-23T07:08:16.691Z,92.90
2023-05-23T07:10:56.633Z,92.90
2023-05-23T07:13:31.712Z,92.80
2023-05-23T07:15:59.673Z,92.50
2023-05-23T07:18:27.820Z,92.30
2023-05-23T07:20:56.885Z,92.10
2023-05-23T07:23:26.161Z,91.80
2023-05-23T07:26:02.030Z,91.70
2023-05-23T07:28:37.810Z,91.50
2023-05-23T07:31:05.641Z,91.30
2023-05-23T07:33:34.774Z,91.10
2023-05-23T07:36:05.233Z,90.90
2023-05-23T07:38:32.937Z,90.70
2023-05-23T07:41:10.645Z,90.50
2023-05-23T07:43:41.069Z,90.40
2023-05-23T07:46:08.928Z,90.30
2023-05-23T07:48:37.608Z,90.10
2023-05-23T07:51:05.305Z,89.90
2023-05-23T07:53:33.670Z,89.60
2023-05-23T07:56:04.205Z,89.30
2023-05-23T07:58:36.757Z,88.80
2023-05-23T08:01:05.507Z,88.30
2023-05-23T08:03:51.825Z,87.80
2023-05-23T08:06:25.886Z,87.00
2023-05-23T08:08:54.415Z,86.00
2023-05-23T08:11:21.993Z,85.50
2023-05-23T08:13:52.150Z,85.20
2023-05-23T08:16:41.826Z,85.00
2023-05-23T08:19:14.851Z,85.10
2023-05-23T08:21:43.171Z,85.20
2023-05-23T08:24:14.806Z,85.10
2023-05-23T08:26:43.528Z,84.50
2023-05-23T08:29:13.694Z,83.40
2023-05-23T08:31:42.737Z,82.40
2023-05-23T08:34:11.678Z,81.90
2023-05-23T08:36:43.114Z,81.50
2023-05-23T08:39:15.659Z,80.70
2023-05-23T08:41:54.262Z,80.50
2023-05-23T08:44:22.157Z,80.00
2023-05-23T08:46:58.526Z,79.00
2023-05-23T08:49:46.036Z,78.50
2023-05-23T08:52:15.748Z,78.10
2023-05-23T08:54:46.585Z,77.90
2023-05-23T08:57:15.810Z,77.50
2023-05-23T08:59:51.832Z,77.00
2023-05-23T09:02:22.257Z,76.60
2023-05-23T09:04:50.867Z,76.10
2023-05-23T09:07:23.524Z,75.50
2023-05-23T09:09:53.519Z,74.50
2023-05-23T09:12:22.508Z,75.10
2023-05-23T09:14:51.650Z,73.40
2023-05-23T09:17:22.733Z,73.20
2023-05-23T09:19:52.837Z,72.90
2023-05-23T09:22:40.985Z,72.60
2023-05-23T09:25:14.928Z,72.20
2023-05-23T09:27:47.793Z,71.40
2023-05-23T09:30:18.671Z,71.10
2023-05-23T09:33:05.762Z,71.10
2023-05-23T09:35:36.039Z,70.70
2023-05-23T09:38:03.725Z,70.60
2023-05-23T09:40:33.127Z,70.10
2023-05-23T09:43:05.331Z,70.10
2023-05-23T09:45:33.742Z,69.80
2023-05-23T09:48:02.573Z,69.50
2023-05-23T09:50:33.692Z,69.30
2023-05-23T09:53:02.913Z,69.20
2023-05-23T09:55:30.960Z,69.10
2023-05-23T09:57:59.958Z,68.90
2023-05-23T10:00:28.699Z,68.80
2023-05-23T10:03:10.723Z,69.20
2023-05-23T10:05:46.289Z,68.80
2023-05-23T10:08:27.226Z,68.60
2023-05-23T10:10:57.480Z,68.60
2023-05-23T10:13:29.088Z,69.40
2023-05-23T10:16:07.978Z,69.40
2023-05-23T10:18:43.198Z,68.80
2023-05-23T10:21:18.887Z,68.30
2023-05-23T10:23:48.243Z,67.60
2023-05-23T10:26:16.722Z,67.30
2023-05-23T10:28:45.482Z,67.00
2023-05-23T10:31:13.232Z,66.40
2023-05-23T10:33:46.930Z,65.60
2023-05-23T10:36:34.452Z,65.30
2023-05-23T10:39:11.999Z,64.40
2023-05-23T10:41:46.346Z,63.80
2023-05-23T10:44:26.626Z,63.60
2023-05-23T10:46:57.546Z,63.00
2023-05-23T10:49:41.533Z,62.60
2023-05-23T10:52:13.833Z,61.10
2023-05-23T10:54:45.996Z,61.20
2023-05-23T10:57:17.960Z,60.90
2023-05-23T10:59:47.288Z,61.00
2023-05-23T11:02:18.332Z,61.40
2023-05-23T11:04:46.202Z,60.40
2023-05-23T11:07:34.707Z,60.10
2023-05-23T11:10:12.415Z,59.30
2023-05-23T11:12:42.649Z,58.90
2023-05-23T11:15:22.381Z,58.30
2023-05-23T11:17:54.816Z,57.50
2023-05-23T11:20:27.429Z,57.40
2023-05-23T11:23:08.761Z,57.20
2023-05-23T11:25:43.937Z,56.80
2023-05-23T11:28:13.056Z,55.90
2023-05-23T11:30:41.679Z,55.40
2023-05-23T11:33:13.855Z,54.80
2023-05-23T11:35:48.686Z,54.30
2023-05-23T11:38:17.118Z,53.40
2023-05-23T11:40:46.905Z,52.90
2023-05-23T11:43:16.826Z,52.40
2023-05-23T11:45:47.386Z,52.20
2023-05-23T11:48:16.913Z,52.30
2023-05-23T11:50:53.084Z,52.00
2023-05-23T11:53:23.050Z,51.60
2023-05-23T11:55:59.998Z,51.50
2023-05-23T11:58:36.281Z,51.50
2023-05-23T12:01:09.072Z,51.30
2023-05-23T12:03:46.895Z,51.00
2023-05-23T12:06:22.180Z,50.70
2023-05-23T12:08:49.954Z,50.60
2023-05-23T12:11:18.733Z,50.80
2023-05-23T12:13:46.577Z,50.20
2023-05-23T12:16:17.788Z,49.90
2023-05-23T12:18:45.633Z,49.60
2023-05-23T12:21:13.084Z,48.80
2023-05-23T12:23:42.254Z,48.60
2023-05-23T12:26:12.755Z,48.10
2023-05-23T12:28:43.291Z,48.20
2023-05-23T12:31:12.165Z,49.20
2023-05-23T12:33:43.947Z,48.80
2023-05-23T12:36:15.801Z,48.30
2023-05-23T12:38:45.620Z,47.60
2023-05-23T12:41:17.571Z,48.00
2023-05-23T12:43:56.397Z,48.10
2023-05-23T12:46:25.607Z,47.50
2023-05-23T12:48:54.661Z,47.80
2023-05-23T12:51:22.388Z,47.80
2023-05-23T12:53:50.603Z,48.10
2023-05-23T12:56:18.258Z,48.20
2023-05-23T12:58:46.112Z,48.10
2023-05-23T13:01:14.391Z,47.90
2023-05-23T13:03:41.973Z,48.10
2023-05-23T13:06:09.599Z,47.50
2023-05-23T13:08:37.663Z,46.90
2023-05-23T13:11:05.688Z,46.20
2023-05-23T13:13:33.829Z,46.00
2023-05-23T13:16:01.671Z,45.30
2023-05-23T13:18:29.505Z,45.00
2023-05-23T13:20:57.018Z,45.00
2023-05-23T13:23:25.916Z,44.00
2023-05-23T13:25:53.792Z,43.30
2023-05-23T13:28:21.268Z,42.80
2023-05-23T13:30:49.162Z,42.40
2023-05-23T13:33:17.225Z,42.40
2023-05-23T13:35:45.116Z,42.10
2023-05-23T13:38:12.789Z,41.90
2023-05-23T13:40:40.854Z,42.20
2023-05-23T13:43:08.728Z,42.20
2023-05-23T13:45:36.522Z,42.30
2023-05-23T13:48:04.787Z,42.10
2023-05-23T13:50:32.544Z,42.00
2023-05-23T13:53:00.221Z,42.00
2023-05-23T13:55:28.944Z,42.60
2023-05-23T13:57:56.704Z,42.60
2023-05-23T14:00:24.496Z,42.90
2023-05-23T14:02:52.100Z,44.40
2023-05-23T14:05:19.763Z,43.90
2023-05-23T14:07:47.552Z,43.80
2023-05-23T14:10:17.338Z,44.10
2023-05-23T14:12:45.032Z,44.50
2023-05-23T14:15:12.631Z,44.60
2023-05-23T14:17:40.132Z,44.70
2023-05-23T14:20:08.769Z,44.80
2023-05-23T14:22:36.492Z,45.00
2023-05-23T14:25:04.352Z,45.30
2023-05-23T14:27:32.743Z,46.30
2023-05-23T14:30:00.235Z,46.30
2023-05-23T14:32:27.708Z,46.20
2023-05-23T14:34:55.521Z,46.20
2023-05-23T14:37:23.073Z,46.30
2023-05-23T14:39:50.841Z,46.60
2023-05-23T14:42:18.485Z,46.60
2023-05-23T14:44:45.949Z,46.80
2023-05-23T14:47:13.531Z,46.90
2023-05-23T14:49:40.977Z,46.90
2023-05-23T14:52:08.430Z,47.30
2023-05-23T14:54:36.240Z,47.50
2023-05-23T14:57:04.803Z,47.70
2023-05-23T14:59:32.593Z,48.10
2023-05-23T15:02:00.274Z,48.20
2023-05-23T15:04:27.931Z,48.30
2023-05-23T15:06:55.605Z,48.10
2023-05-23T15:09:23.546Z,48.10
2023-05-23T15:11:51.184Z,48.30
2023-05-23T15:14:18.728Z,48.20
2023-05-23T15:16:48.648Z,48.40
2023-05-23T15:19:16.858Z,48.50
2023-05-23T15:21:50.298Z,48.40
2023-05-23T15:24:19.078Z,48.20
2023-05-23T15:26:47.195Z,48.10
2023-05-23T15:29:16.914Z,47.90
2023-05-23T15:31:45.128Z,48.60
2023-05-23T15:34:12.860Z,48.30
2023-05-23T15:36:40.960Z,48.00
2023-05-23T15:39:08.763Z,47.70
2023-05-23T15:41:36.387Z,47.60
2023-05-23T15:44:04.008Z,47.50
2023-05-23T15:46:32.139Z,47.60
2023-05-23T15:49:07.179Z,48.00
2023-05-23T15:51:41.634Z,48.20
2023-05-23T15:54:09.357Z,48.10
2023-05-23T15:56:36.994Z,47.90
2023-05-23T15:59:04.701Z,48.20
2023-05-23T16:01:33.093Z,48.50
2023-05-23T16:04:00.969Z,48.50
2023-05-23T16:06:28.640Z,48.30
2023-05-23T16:08:56.206Z,48.40
2023-05-23T16:11:24.096Z,48.70
2023-05-23T16:13:51.688Z,49.00
2023-05-23T16:16:19.370Z,49.10
2023-05-23T16:18:46.950Z,49.40
2023-05-23T16:21:20.417Z,50.10
2023-05-23T16:23:51.373Z,50.60
2023-05-23T16:26:19.886Z,51.10
2023-05-23T16:28:47.645Z,51.30
2023-05-23T16:31:16.831Z,51.30
2023-05-23T16:33:45.039Z,51.20
2023-05-23T16:36:12.557Z,51.40
2023-05-23T16:38:40.750Z,51.70
2023-05-23T16:41:08.301Z,52.00
2023-05-23T16:43:36.598Z,52.30
2023-05-23T16:46:04.548Z,52.50
2023-05-23T16:48:32.228Z,52.70
2023-05-23T16:50:59.938Z,53.00
2023-05-23T16:53:28.449Z,53.20
2023-05-23T16:55:56.055Z,53.40
2023-05-23T16:58:23.693Z,53.30
2023-05-23T17:00:51.627Z,53.40
2023-05-23T17:03:21.030Z,53.20
2023-05-23T17:05:48.758Z,53.10
2023-05-23T17:08:16.443Z,53.10
2023-05-23T17:10:44.266Z,53.30
2023-05-23T17:13:11.918Z,53.50
2023-05-23T17:15:39.706Z,53.60
2023-05-23T17:18:07.668Z,53.70
2023-05-23T17:20:35.333Z,53.80
2023-05-23T17:23:03.605Z,53.90
2023-05-23T17:25:31.231Z,53.90
2023-05-23T17:27:58.822Z,53.90
2023-05-23T17:30:26.342Z,53.90
2023-05-23T17:32:53.842Z,53.80
2023-05-23T17:35:21.830Z,53.90
2023-05-23T17:37:49.348Z,53.90
2023-05-23T17:40:17.605Z,54.00
2023-05-23T17:42:45.716Z,54.20
2023-05-23T17:45:13.275Z,54.60
2023-05-23T17:47:41.688Z,54.90
2023-05-23T17:50:10.129Z,55.20
2023-05-23T17:52:37.783Z,55.10
2023-05-23T17:55:06.276Z,55.20
2023-05-23T17:57:34.397Z,55.40
2023-05-23T18:00:02.162Z,55.70
2023-05-23T18:02:40.313Z,55.90
2023-05-23T18:05:09.285Z,56.10
2023-05-23T18:07:37.438Z,56.40
2023-05-23T18:10:06.438Z,56.60
2023-05-23T18:12:33.977Z,56.80
2023-05-23T18:15:01.423Z,57.10
2023-05-23T18:17:29.183Z,57.50
2023-05-23T18:19:56.770Z,57.90
2023-05-23T18:22:24.713Z,58.20
2023-05-23T18:24:52.340Z,58.50
2023-05-23T18:27:20.054Z,58.70
2023-05-23T18:29:47.525Z,59.40
2023-05-23T18:32:15.173Z,59.10
2023-05-23T18:34:43.015Z,59.20
2023-05-23T18:37:10.619Z,59.50
2023-05-23T18:39:38.801Z,59.70
2023-05-23T18:42:06.787Z,60.00
2023-05-23T18:44:34.947Z,60.10
2023-05-23T18:47:02.717Z,60.40
2023-05-23T18:49:30.760Z,60.70
2023-05-23T18:51:58.395Z,60.90
2023-05-23T18:54:25.961Z,61.10
2023-05-23T18:56:53.397Z,61.30
2023-05-23T18:59:21.025Z,61.50
2023-05-23T19:01:48.676Z,61.60
2023-05-23T19:04:17.409Z,62.00
2023-05-23T19:06:46.445Z,62.20
2023-05-23T19:09:13.977Z,62.30
2023-05-23T19:11:41.596Z,62.70
2023-05-23T19:14:09.153Z,63.00
2023-05-23T19:16:37.546Z,63.30
2023-05-23T19:19:05.928Z,63.50
2023-05-23T19:21:33.987Z,63.80
2023-05-23T19:24:02.006Z,63.90
2023-05-23T19:26:29.462Z,64.10
2023-05-23T19:28:57.114Z,64.20
2023-05-23T19:31:24.856Z,64.50
2023-05-23T19:33:52.549Z,64.80
2023-05-23T19:36:20.248Z,65.10
2023-05-23T19:38:47.812Z,65.30
2023-05-23T19:41:15.646Z,65.60
2023-05-23T19:43:43.111Z,65.80
2023-05-23T19:46:10.800Z,66.10
2023-05-23T19:48:38.416Z,66.30
2023-05-23T19:51:05.994Z,66.50
2023-05-23T19:53:33.572Z,66.70
2023-05-23T19:56:03.507Z,66.80
2023-05-23T19:58:31.467Z,67.00
2023-05-23T20:00:59.017Z,67.20
2023-05-23T20:03:27.169Z,67.60
2023-05-23T20:05:54.995Z,67.70
2023-05-23T20:08:22.425Z,68.00
2023-05-23T20:10:49.995Z,68.20
2023-05-23T20:13:17.753Z,68.40
2023-05-23T20:15:46.457Z,68.60
2023-05-23T20:18:13.960Z,68.80
2023-05-23T20:20:41.635Z,69.00
2023-05-23T20:23:09.673Z,69.30
2023-05-23T20:25:37.350Z,69.40
2023-05-23T20:28:04.848Z,69.60
2023-05-23T20:30:32.605Z,69.80
2023-05-23T20:33:00.214Z,70.10
2023-05-23T20:35:27.698Z,70.40
2023-05-23T20:37:55.553Z,70.70
2023-05-23T20:40:23.181Z,70.90
2023-05-23T20:42:51.736Z,71.10
2023-05-23T20:45:20.156Z,71.20
2023-05-23T20:47:47.983Z,71.40
2023-05-23T20:50:16.531Z,71.60
2023-05-23T20:52:44.065Z,71.90
2023-05-23T20:55:11.707Z,72.10
2023-05-23T20:57:39.588Z,72.30
2023-05-23T21:00:11.848Z,72.50
2023-05-23T21:02:40.214Z,72.70
2023-05-23T21:05:09.059Z,72.70
2023-05-23T21:07:36.646Z,72.40
2023-05-23T21:10:05.427Z,72.50
2023-05-23T21:12:33.124Z,72.40
2023-05-23T21:15:00.826Z,72.20
2023-05-23T21:17:29.087Z,72.20
2023-05-23T21:19:56.909Z,72.30
2023-05-23T21:22:24.474Z,72.50
2023-05-23T21:24:52.132Z,72.80
2023-05-23T21:27:20.383Z,73.10
2023-05-23T21:29:48.080Z,73.40
2023-05-23T21:32:18.522Z,73.60
2023-05-23T21:34:46.139Z,74.00
2023-05-23T21:37:13.933Z,74.50
2023-05-23T21:39:51.485Z,74.90
2023-05-23T21:42:21.087Z,75.30
2023-05-23T21:44:48.654Z,75.60
2023-05-23T21:47:16.344Z,75.90
2023-05-23T21:49:43.844Z,76.10
2023-05-23T21:52:11.292Z,76.30
2023-05-23T21:54:39.181Z,76.40
2023-05-23T21:57:06.907Z,76.60
2023-05-23T21:59:35.156Z,76.90
2023-05-23T22:02:03.550Z,77.20
2023-05-23T22:04:32.721Z,77.50
2023-05-23T22:07:00.197Z,77.70
2023-05-23T22:09:27.805Z,77.80
2023-05-23T22:11:55.924Z,78.00
2023-05-23T22:14:23.487Z,78.20
2023-05-23T22:16:52.023Z,78.20
2023-05-23T22:19:21.036Z,78.40
2023-05-23T22:21:48.748Z,78.50
2023-05-23T22:24:16.234Z,78.80
2023-05-23T22:26:43.777Z,79.00
2023-05-23T22:29:11.641Z,79.20
2023-05-23T22:31:39.531Z,79.30
2023-05-23T22:34:07.211Z,79.40
2023-05-23T22:36:36.507Z,79.30
2023-05-23T22:39:05.590Z,79.50
2023-05-23T22:41:33.299Z,79.60
2023-05-23T22:44:01.139Z,79.70
2023-05-23T22:46:28.893Z,79.60
2023-05-23T22:48:56.631Z,79.60
2023-05-23T22:51:24.910Z,79.80
2023-05-23T22:53:53.050Z,79.90
2023-05-23T22:56:20.746Z,80.00
2023-05-23T22:58:48.393Z,80.00
2023-05-23T23:01:16.093Z,80.10
2023-05-23T23:03:43.704Z,80.20
2023-05-23T23:06:12.234Z,80.30
2023-05-23T23:08:39.829Z,80.60
2023-05-23T23:11:07.463Z,80.60
2023-05-23T23:13:35.010Z,81.50
2023-05-23T23:16:02.659Z,80.70
2023-05-23T23:18:30.240Z,80.70
2023-05-23T23:20:58.077Z,80.80
2023-05-23T23:23:25.689Z,80.90
2023-05-23T23:25:53.489Z,81.00
2023-05-23T23:28:21.097Z,81.00
2023-05-23T23:30:48.705Z,80.90
2023-05-23T23:33:16.614Z,81.00
2023-05-23T23:35:48.794Z,81.10
2023-05-23T23:38:16.573Z,81.20
2023-05-23T23:40:45.589Z,81.10
2023-05-23T23:43:13.641Z,81.20
2023-05-23T23:45:41.444Z,81.30
2023-05-23T23:48:09.129Z,82.10
2023-05-23T23:50:37.572Z,81.40
2023-05-23T23:53:05.283Z,81.30
2023-05-23T23:55:32.815Z,81.30
2023-05-23T23:58:00.310Z,81.20
